| time (UTC) | temp C | wind direction | speed KPH | gust KPH | rain 1hr cm | rain 24hr cm | rain mn cm | humidity % | barometer mb |
| 20260507202834 | 23 | 183 | 6.4 | 6.4 | 0.00 | 0.00 | 0.00 | 90 | 1007.1 |
| 20260507202331 | 23 | 176 | 1.6 | 1.6 | 0.00 | 0.00 | 0.00 | 90 | 1007.1 |
| 20260507201826 | 23 | 182 | 3.2 | 3.2 | 0.00 | 0.00 | 0.00 | 90 | 1007.3 |
| 20260507201322 | 23 | 196 | 4.8 | 4.8 | 0.00 | 0.00 | 0.00 | 89 | 1007.0 |
| 20260507200819 | 23 | 169 | 1.6 | 1.6 | 0.00 | 0.00 | 0.00 | 89 | 1007.1 |
| 20260507200315 | 23 | 183 | 0.0 | 1.6 | 0.00 | 0.00 | 0.00 | 89 | 1007.2 |
| 20260507195811 | 23 | 196 | 1.6 | 3.2 | 0.00 | 0.00 | 0.00 | 89 | 1007.0 |
| 20260507195308 | 23 | 197 | 3.2 | 4.8 | 0.00 | 0.00 | 0.00 | 89 | 1007.0 |
| 20260507194806 | 23 | 208 | 8.0 | 11.3 | 0.00 | 0.00 | 0.00 | 89 | 1007.0 |
| 20260507194302 | 23 | 194 | 3.2 | 4.8 | 0.00 | 0.00 | 0.00 | 89 | 1007.1 |
| 20260507193758 | 23 | 185 | 4.8 | 6.4 | 0.00 | 0.00 | 0.00 | 89 | 1007.4 |
| 20260507193255 | 23 | 163 | 4.8 | 6.4 | 0.00 | 0.00 | 0.00 | 89 | 1007.3 |
| 20260507192751 | 23 | 182 | 3.2 | 4.8 | 0.00 | 0.00 | 0.00 | 88 | 1007.2 |
| 20260507192248 | 23 | 158 | 8.0 | 12.9 | 0.00 | 0.00 | 0.00 | 88 | 1007.4 |
| 20260507191744 | 23 | 214 | 4.8 | 6.4 | 0.00 | 0.00 | 0.00 | 88 | 1007.6 |
| 20260507191241 | 23 | 222 | 1.6 | 1.6 | 0.00 | 0.00 | 0.00 | 88 | 1007.4 |
| 20260507190738 | 23 | 184 | 6.4 | 9.7 | 0.00 | 0.00 | 0.00 | 88 | 1007.4 |
| 20260507190236 | 23 | 124 | 4.8 | 4.8 | 0.00 | 0.00 | 0.00 | 87 | 1007.4 |
| 20260507185735 | 23 | 166 | 6.4 | 6.4 | 0.00 | 0.00 | 0.00 | 87 | 1007.3 |
| 20260507185231 | 23 | 180 | 8.0 | 11.3 | 0.00 | 0.00 | 0.00 | 87 | 1007.3 |
| 20260507184729 | 23 | 192 | 6.4 | 9.7 | 0.00 | 0.00 | 0.00 | 87 | 1007.5 |
| 20260507184227 | 23 | 208 | 4.8 | 4.8 | 0.00 | 0.00 | 0.00 | 87 | 1007.5 |
| 20260507183723 | 23 | 138 | 6.4 | 6.4 | 0.00 | 0.00 | 0.00 | 86 | 1007.6 |
| 20260507183220 | 23 | 198 | 6.4 | 6.4 | 0.00 | 0.00 | 0.00 | 86 | 1007.4 |
| 20260507182717 | 23 | 182 | 4.8 | 4.8 | 0.00 | 0.00 | 0.00 | 86 | 1007.7 |
| 20260507182212 | 23 | 159 | 8.0 | 11.3 | 0.00 | 0.00 | 0.00 | 85 | 1007.9 |
| 20260507181709 | 23 | 175 | 3.2 | 3.2 | 0.00 | 0.00 | 0.00 | 85 | 1007.6 |
| 20260507181206 | 23 | 201 | 6.4 | 6.4 | 0.00 | 0.00 | 0.00 | 85 | 1007.7 |
| 20260507180702 | 24 | 209 | 3.2 | 4.8 | 0.00 | 0.00 | 0.00 | 84 | 1007.5 |
| 20260507180159 | 24 | 181 | 6.4 | 9.7 | 0.00 | 0.00 | 0.00 | 84 | 1007.8 |
| 20260507175655 | 24 | 238 | 8.0 | 9.7 | 0.00 | 0.00 | 0.00 | 84 | 1007.8 |
| 20260507175152 | 24 | 219 | 3.2 | 3.2 | 0.00 | 0.00 | 0.00 | 84 | 1007.9 |
| 20260507174649 | 24 | 190 | 4.8 | 6.4 | 0.00 | 0.00 | 0.00 | 84 | 1007.8 |
| 20260507174148 | 24 | 174 | 8.0 | 11.3 | 0.00 | 0.00 | 0.00 | 83 | 1007.9 |
| 20260507173644 | 24 | 137 | 9.7 | 14.5 | 0.00 | 0.00 | 0.00 | 83 | 1007.9 |
| 20260507173141 | 24 | 170 | 4.8 | 4.8 | 0.00 | 0.00 | 0.00 | 83 | 1008.0 |
| 20260507172637 | 24 | 194 | 8.0 | 9.7 | 0.00 | 0.00 | 0.00 | 83 | 1008.1 |
| 20260507172135 | 24 | 125 | 8.0 | 11.3 | 0.00 | 0.00 | 0.00 | 82 | 1008.2 |
| 20260507171629 | 24 | 155 | 3.2 | 9.7 | 0.00 | 0.00 | 0.00 | 82 | 1008.0 |
| 20260507171127 | 24 | 152 | 9.7 | 14.5 | 0.00 | 0.00 | 0.00 | 82 | 1007.9 |
| 20260507170624 | 24 | 185 | 3.2 | 3.2 | 0.00 | 0.00 | 0.00 | 81 | 1008.1 |
| 20260507170121 | 25 | 168 | 6.4 | 11.3 | 0.00 | 0.00 | 0.00 | 80 | 1008.2 |
| 20260507165616 | 25 | 202 | 6.4 | 9.7 | 0.00 | 0.00 | 0.00 | 80 | 1008.2 |
| 20260507165113 | 25 | 199 | 8.0 | 11.3 | 0.00 | 0.00 | 0.00 | 81 | 1008.3 |
| 20260507164609 | 25 | 274 | 4.8 | 9.7 | 0.00 | 0.00 | 0.00 | 80 | 1008.4 |
| 20260507164106 | 25 | 228 | 6.4 | 6.4 | 0.00 | 0.00 | 0.00 | 81 | 1008.5 |
| 20260507163604 | 25 | 200 | 1.6 | 3.2 | 0.00 | 0.00 | 0.00 | 80 | 1008.7 |
| 20260507163102 | 25 | 176 | 6.4 | 9.7 | 0.00 | 0.00 | 0.00 | 81 | 1008.9 |
| 20260507162601 | 25 | 157 | 8.0 | 9.7 | 0.00 | 0.00 | 0.00 | 82 | 1008.9 |
| 20260507162059 | 25 | 194 | 4.8 | 4.8 | 0.00 | 0.00 | 0.00 | 82 | 1009.1 |
| 20260507161555 | 25 | 196 | 1.6 | 4.8 | 0.00 | 0.00 | 0.00 | 82 | 1009.2 |
| 20260507161051 | 25 | 179 | 4.8 | 4.8 | 0.00 | 0.00 | 0.00 | 82 | 1009.3 |
| 20260507160548 | 25 | 216 | 1.6 | 3.2 | 0.00 | 0.00 | 0.00 | 81 | 1009.5 |
| 20260507160044 | 25 | 188 | 1.6 | 3.2 | 0.00 | 0.00 | 0.00 | 81 | 1009.5 |
| 20260507155539 | 25 | 216 | 4.8 | 9.7 | 0.00 | 0.00 | 0.00 | 80 | 1009.5 |
| 20260507155037 | 25 | 194 | 9.7 | 16.1 | 0.00 | 0.00 | 0.00 | 80 | 1009.7 |
| 20260507154534 | 25 | 194 | 6.4 | 6.4 | 0.00 | 0.00 | 0.00 | 80 | 1009.8 |
| 20260507154031 | 25 | 150 | 9.7 | 11.3 | 0.00 | 0.00 | 0.00 | 80 | 1009.8 |
| 20260507153528 | 26 | 176 | 11.3 | 14.5 | 0.00 | 0.00 | 0.00 | 80 | 1009.9 |
| 20260507153024 | 25 | 197 | 4.8 | 4.8 | 0.00 | 0.00 | 0.00 | 81 | 1010.0 |
| 20260507152519 | 25 | 182 | 6.4 | 6.4 | 0.00 | 0.00 | 0.00 | 82 | 1010.1 |
| 20260507152016 | 25 | 203 | 3.2 | 4.8 | 0.00 | 0.00 | 0.00 | 82 | 1010.5 |
| 20260507151513 | 25 | 201 | 3.2 | 4.8 | 0.00 | 0.00 | 0.00 | 83 | 1010.4 |
| 20260507151010 | 25 | 222 | 9.7 | 12.9 | 0.00 | 0.00 | 0.00 | 83 | 1010.6 |
| 20260507150506 | 25 | 224 | 6.4 | 9.7 | 0.00 | 0.00 | 0.00 | 85 | 1010.8 |
| 20260507150003 | 24 | 203 | 3.2 | 4.8 | 0.00 | 0.00 | 0.00 | 85 | 1010.9 |
| 20260507145458 | 24 | 189 | 1.6 | 3.2 | 0.00 | 0.00 | 0.00 | 86 | 1010.9 |
| 20260507144955 | 23 | 191 | 0.0 | 0.0 | 0.00 | 0.00 | 0.00 | 86 | 1011.2 |
| 20260507144452 | 23 | 179 | 6.4 | 11.3 | 0.00 | 0.00 | 0.00 | 86 | 1011.2 |
| 20260507143949 | 23 | 212 | 0.0 | 0.0 | 0.00 | 0.00 | 0.00 | 86 | 1011.4 |
| 20260507143447 | 23 | 190 | 0.0 | 1.6 | 0.00 | 0.00 | 0.00 | 86 | 1011.6 |
| 20260507142943 | 23 | 192 | 1.6 | 3.2 | 0.00 | 0.00 | 0.00 | 86 | 1011.5 |
| 20260507142439 | 23 | 184 | 3.2 | 3.2 | 0.00 | 0.00 | 0.00 | 86 | 1011.8 |
| 20260507141937 | 24 | 159 | 4.8 | 4.8 | 0.00 | 0.00 | 0.00 | 85 | 1011.7 |
| 20260507141432 | 24 | 191 | 1.6 | 1.6 | 0.00 | 0.00 | 0.00 | 85 | 1011.9 |
| 20260507140929 | 24 | 183 | 6.4 | 9.7 | 0.00 | 0.00 | 0.00 | 85 | 1012.0 |
| 20260507140426 | 24 | 165 | 1.6 | 1.6 | 0.00 | 0.00 | 0.00 | 85 | 1012.0 |
| 20260507135924 | 24 | 186 | 1.6 | 3.2 | 0.00 | 0.00 | 0.00 | 85 | 1012.2 |
| 20260507135420 | 24 | 208 | 4.8 | 4.8 | 0.00 | 0.00 | 0.00 | 85 | 1012.0 |
| 20260507134918 | 24 | 182 | 8.0 | 9.7 | 0.00 | 0.00 | 0.00 | 84 | 1012.3 |
| 20260507134414 | 25 | 154 | 6.4 | 9.7 | 0.00 | 0.00 | 0.00 | 84 | 1012.4 |
| 20260507133910 | 24 | 166 | 1.6 | 3.2 | 0.00 | 0.00 | 0.00 | 85 | 1012.4 |
| 20260507133406 | 24 | 191 | 6.4 | 9.7 | 0.00 | 0.00 | 0.00 | 84 | 1012.5 |
| 20260507132905 | 24 | 217 | 3.2 | 4.8 | 0.00 | 0.00 | 0.00 | 84 | 1012.7 |
| 20260507132400 | 25 | 197 | 6.4 | 9.7 | 0.00 | 0.00 | 0.00 | 84 | 1012.6 |
| 20260507131858 | 24 | 187 | 1.6 | 1.6 | 0.00 | 0.00 | 0.00 | 85 | 1012.8 |
| 20260507131354 | 23 | 187 | 1.6 | 1.6 | 0.00 | 0.00 | 0.00 | 86 | 1013.0 |
| 20260507130851 | 23 | 184 | 1.6 | 1.6 | 0.00 | 0.00 | 0.00 | 86 | 1013.0 |
| 20260507130348 | 23 | 206 | 4.8 | 6.4 | 0.00 | 0.00 | 0.00 | 86 | 1013.2 |
| 20260507125847 | 24 | 205 | 3.2 | 3.2 | 0.00 | 0.00 | 0.00 | 86 | 1012.9 |
| 20260507125344 | 24 | 146 | 3.2 | 3.2 | 0.00 | 0.00 | 0.00 | 86 | 1012.9 |
| 20260507124842 | 24 | 216 | 4.8 | 6.4 | 0.00 | 0.00 | 0.00 | 86 | 1013.0 |
| 20260507124338 | 24 | 193 | 9.7 | 11.3 | 0.00 | 0.00 | 0.00 | 87 | 1013.3 |
| 20260507123837 | 24 | 218 | 4.8 | 6.4 | 0.00 | 0.00 | 0.00 | 88 | 1013.2 |
| 20260507123333 | 24 | 163 | 4.8 | 6.4 | 0.00 | 0.00 | 0.00 | 88 | 1013.1 |
| 20260507122830 | 23 | 211 | 3.2 | 3.2 | 0.00 | 0.00 | 0.00 | 88 | 1013.2 |
| 20260507122325 | 23 | 199 | 3.2 | 3.2 | 0.00 | 0.00 | 0.00 | 89 | 1013.2 |
| 20260507121822 | 23 | 199 | 3.2 | 4.8 | 0.00 | 0.00 | 0.00 | 89 | 1013.3 |
| 20260507121317 | 23 | 206 | 6.4 | 6.4 | 0.00 | 0.00 | 0.00 | 89 | 1013.3 |
| 20260507120814 | 23 | 190 | 3.2 | 3.2 | 0.00 | 0.00 | 0.00 | 90 | 1013.4 |
| 20260507120310 | 23 | 194 | 1.6 | 1.6 | 0.00 | 0.00 | 0.00 | 90 | 1013.3 |
| 20260507115806 | 23 | 190 | 3.2 | 4.8 | 0.00 | 0.00 | 0.00 | 90 | 1013.3 |
| 20260507115306 | 23 | 213 | 3.2 | 3.2 | 0.00 | 0.00 | 0.00 | 90 | 1013.2 |
| 20260507114758 | 23 | 192 | 0.0 | 1.6 | 0.00 | 0.00 | 0.00 | 90 | 1013.3 |
| 20260507114256 | 23 | 199 | 6.4 | 6.4 | 0.00 | 0.00 | 0.00 | 90 | 1013.4 |
| 20260507113753 | 23 | 196 | 0.0 | 1.6 | 0.00 | 0.00 | 0.00 | 91 | 1013.4 |
| 20260507113249 | 23 | 185 | 3.2 | 4.8 | 0.00 | 0.00 | 0.00 | 91 | 1013.4 |
| 20260507112748 | 23 | 188 | 0.0 | 0.0 | 0.00 | 0.00 | 0.00 | 92 | 1013.5 |
| 20260507112244 | 22 | 170 | 1.6 | 3.2 | 0.00 | 0.00 | 0.00 | 92 | 1013.4 |
| 20260507111742 | 22 | 199 | 1.6 | 3.2 | 0.00 | 0.00 | 0.00 | 92 | 1013.7 |
| 20260507111238 | 23 | 207 | 3.2 | 3.2 | 0.00 | 0.00 | 0.00 | 92 | 1013.3 |
| 20260507110734 | 23 | 178 | 3.2 | 3.2 | 0.00 | 0.00 | 0.00 | 92 | 1013.2 |
| 20260507110231 | 22 | 195 | 1.6 | 1.6 | 0.00 | 0.00 | 0.00 | 93 | 1013.3 |
| 20260507105728 | 22 | 198 | 1.6 | 1.6 | 0.00 | 0.00 | 0.00 | 93 | 1013.2 |
| 20260507105224 | 22 | 193 | 0.0 | 0.0 | 0.00 | 0.00 | 0.00 | 93 | 1013.2 |
| 20260507104721 | 22 | 184 | 0.0 | 0.0 | 0.00 | 0.00 | 0.00 | 93 | 1013.3 |
| 20260507104218 | 22 | 183 | 0.0 | 0.0 | 0.00 | 0.00 | 0.00 | 93 | 1013.2 |
| 20260507103714 | 22 | 173 | 0.0 | 0.0 | 0.00 | 0.00 | 0.00 | 93 | 1013.2 |
| 20260507103210 | 22 | 176 | 0.0 | 0.0 | 0.00 | 0.00 | 0.00 | 93 | 1013.4 |
| 20260507102707 | 22 | 175 | 3.2 | 4.8 | 0.00 | 0.00 | 0.00 | 93 | 1013.2 |
| 20260507102203 | 22 | 181 | 0.0 | 0.0 | 0.00 | 0.00 | 0.00 | 94 | 1013.1 |
| 20260507101659 | 22 | 182 | 0.0 | 1.6 | 0.00 | 0.00 | 0.00 | 94 | 1013.1 |
| 20260507101155 | 22 | 185 | 0.0 | 0.0 | 0.00 | 0.00 | 0.00 | 94 | 1013.0 |
| 20260507100653 | 22 | 182 | 0.0 | 0.0 | 0.00 | 0.00 | 0.00 | 94 | 1013.3 |
| 20260507100151 | 22 | 188 | 1.6 | 3.2 | 0.00 | 0.00 | 0.00 | 94 | 1013.1 |
| 20260507095649 | 22 | 218 | 3.2 | 4.8 | 0.00 | 0.00 | 0.00 | 94 | 1013.1 |
| 20260507095145 | 22 | 112 | 1.6 | 1.6 | 0.00 | 0.00 | 0.00 | 94 | 1013.3 |
| 20260507094641 | 22 | 201 | 3.2 | 4.8 | 0.00 | 0.00 | 0.00 | 94 | 1013.3 |
| 20260507094138 | 22 | 179 | 1.6 | 4.8 | 0.00 | 0.00 | 0.00 | 94 | 1013.0 |
| 20260507093635 | 22 | 180 | 0.0 | 0.0 | 0.00 | 0.00 | 0.00 | 94 | 1013.0 |
| 20260507093134 | 22 | 186 | 0.0 | 0.0 | 0.00 | 0.00 | 0.00 | 94 | 1013.2 |
| 20260507092631 | 22 | 163 | 3.2 | 3.2 | 0.00 | 0.00 | 0.00 | 94 | 1013.2 |
| 20260507092127 | 22 | 205 | 4.8 | 4.8 | 0.00 | 0.00 | 0.00 | 94 | 1013.2 |
| 20260507091624 | 22 | 188 | 0.0 | 0.0 | 0.00 | 0.00 | 0.00 | 94 | 1013.1 |
| 20260507091119 | 22 | 192 | 0.0 | 0.0 | 0.00 | 0.00 | 0.00 | 94 | 1013.1 |
| 20260507090616 | 22 | 188 | 0.0 | 1.6 | 0.00 | 0.00 | 0.00 | 94 | 1013.1 |
| 20260507090113 | 22 | 189 | 3.2 | 3.2 | 0.00 | 0.00 | 0.00 | 94 | 1013.0 |
| 20260507085610 | 22 | 179 | 0.0 | 1.6 | 0.00 | 0.00 | 0.00 | 94 | 1013.0 |
| 20260507085106 | 22 | 196 | 0.0 | 0.0 | 0.00 | 0.00 | 0.00 | 94 | 1012.8 |
| 20260507084603 | 22 | 189 | 0.0 | 0.0 | 0.00 | 0.00 | 0.00 | 94 | 1012.9 |
| 20260507084100 | 22 | 191 | 1.6 | 1.6 | 0.00 | 0.00 | 0.00 | 94 | 1012.9 |
| 20260507083556 | 22 | 189 | 0.0 | 1.6 | 0.00 | 0.00 | 0.00 | 94 | 1012.8 |
| 20260507083054 | 22 | 178 | 1.6 | 1.6 | 0.00 | 0.00 | 0.00 | 94 | 1012.8 |
| 20260507082549 | 22 | 179 | 0.0 | 1.6 | 0.00 | 0.00 | 0.00 | 94 | 1012.8 |
| 20260507082046 | 22 | 190 | 0.0 | 1.6 | 0.00 | 0.00 | 0.00 | 94 | 1012.6 |
| 20260507081542 | 22 | 194 | 0.0 | 0.0 | 0.00 | 0.00 | 0.00 | 94 | 1012.6 |
| 20260507081040 | 22 | 195 | 1.6 | 1.6 | 0.00 | 0.00 | 0.00 | 94 | 1012.5 |
| 20260507080535 | 22 | 185 | 1.6 | 1.6 | 0.00 | 0.00 | 0.00 | 94 | 1012.4 |
| 20260507080032 | 22 | 173 | 3.2 | 3.2 | 0.00 | 0.00 | 0.00 | 94 | 1012.5 |
| 20260507075527 | 22 | 186 | 0.0 | 0.0 | 0.00 | 0.00 | 0.00 | 94 | 1012.5 |
| 20260507075024 | 22 | 186 | 1.6 | 1.6 | 0.00 | 0.00 | 0.00 | 94 | 1012.4 |
| 20260507074520 | 22 | 187 | 0.0 | 0.0 | 0.00 | 0.00 | 0.00 | 94 | 1012.7 |
| 20260507074019 | 22 | 189 | 3.2 | 3.2 | 0.00 | 0.00 | 0.00 | 94 | 1012.8 |
| 20260507073515 | 22 | 185 | 0.0 | 1.6 | 0.00 | 0.00 | 0.00 | 94 | 1012.8 |
| 20260507073012 | 22 | 186 | 3.2 | 3.2 | 0.00 | 0.00 | 0.00 | 94 | 1012.9 |
| 20260507072509 | 22 | 188 | 0.0 | 0.0 | 0.00 | 0.00 | 0.00 | 94 | 1012.9 |
| 20260507072006 | 22 | 194 | 1.6 | 3.2 | 0.00 | 0.00 | 0.00 | 94 | 1012.9 |
| 20260507071504 | 22 | 192 | 1.6 | 3.2 | 0.00 | 0.00 | 0.00 | 94 | 1013.0 |
| 20260507071000 | 22 | 193 | 0.0 | 1.6 | 0.00 | 0.00 | 0.00 | 94 | 1013.1 |
| 20260507070457 | 22 | 184 | 1.6 | 1.6 | 0.00 | 0.00 | 0.00 | 94 | 1013.0 |
| 20260507065954 | 22 | 194 | 3.2 | 4.8 | 0.00 | 0.00 | 0.00 | 94 | 1013.0 |
| 20260507065451 | 22 | 187 | 4.8 | 6.4 | 0.00 | 0.00 | 0.00 | 94 | 1013.1 |
| 20260507064948 | 22 | 189 | 1.6 | 1.6 | 0.00 | 0.00 | 0.00 | 94 | 1013.2 |
| 20260507064446 | 22 | 219 | 1.6 | 3.2 | 0.00 | 0.00 | 0.00 | 94 | 1013.2 |
| 20260507063943 | 22 | 211 | 3.2 | 3.2 | 0.00 | 0.00 | 0.00 | 94 | 1013.3 |
| 20260507063440 | 22 | 192 | 0.0 | 0.0 | 0.00 | 0.00 | 0.00 | 94 | 1013.3 |
| 20260507062937 | 22 | 199 | 4.8 | 6.4 | 0.00 | 0.00 | 0.00 | 94 | 1013.4 |
| 20260507062434 | 22 | 179 | 1.6 | 3.2 | 0.00 | 0.00 | 0.00 | 94 | 1013.5 |
| 20260507061932 | 22 | 154 | 3.2 | 3.2 | 0.00 | 0.00 | 0.00 | 94 | 1013.5 |
| 20260507061429 | 22 | 189 | 1.6 | 1.6 | 0.00 | 0.00 | 0.00 | 94 | 1013.7 |
| 20260507060928 | 22 | 188 | 0.0 | 0.0 | 0.00 | 0.00 | 0.00 | 94 | 1013.9 |
| 20260507060424 | 22 | 188 | 0.0 | 0.0 | 0.00 | 0.00 | 0.00 | 94 | 1013.7 |
| 20260507055921 | 22 | 151 | 1.6 | 1.6 | 0.00 | 0.00 | 0.00 | 94 | 1013.6 |
| 20260507055416 | 22 | 193 | 0.0 | 0.0 | 0.00 | 0.00 | 0.00 | 94 | 1014.0 |
| 20260507054914 | 22 | 178 | 0.0 | 1.6 | 0.00 | 0.00 | 0.00 | 94 | 1014.1 |
| 20260507054409 | 22 | 187 | 3.2 | 3.2 | 0.00 | 0.00 | 0.00 | 94 | 1013.7 |
| 20260507053908 | 22 | 195 | 1.6 | 3.2 | 0.00 | 0.00 | 0.00 | 94 | 1014.0 |
| 20260507053405 | 22 | 208 | 1.6 | 3.2 | 0.00 | 0.00 | 0.00 | 94 | 1014.0 |
| 20260507052904 | 22 | 213 | 1.6 | 1.6 | 0.00 | 0.00 | 0.00 | 94 | 1014.2 |
| 20260507052400 | 22 | 185 | 0.0 | 0.0 | 0.00 | 0.00 | 0.00 | 93 | 1014.1 |
| 20260507051857 | 22 | 195 | 1.6 | 1.6 | 0.00 | 0.00 | 0.00 | 93 | 1014.2 |
| 20260507051354 | 22 | 179 | 0.0 | 0.0 | 0.00 | 0.00 | 0.00 | 93 | 1014.4 |
| 20260507050851 | 22 | 208 | 1.6 | 3.2 | 0.00 | 0.00 | 0.00 | 93 | 1014.4 |
| 20260507050348 | 22 | 193 | 0.0 | 0.0 | 0.00 | 0.00 | 0.00 | 93 | 1014.3 |
| 20260507045845 | 22 | 180 | 0.0 | 0.0 | 0.00 | 0.00 | 0.00 | 93 | 1014.3 |
| 20260507045341 | 22 | 211 | 3.2 | 4.8 | 0.00 | 0.00 | 0.00 | 93 | 1014.5 |
| 20260507044838 | 22 | 195 | 1.6 | 3.2 | 0.00 | 0.00 | 0.00 | 93 | 1014.5 |
| 20260507044335 | 22 | 200 | 3.2 | 4.8 | 0.00 | 0.00 | 0.00 | 93 | 1014.9 |
| 20260507043830 | 22 | 191 | 0.0 | 1.6 | 0.00 | 0.00 | 0.00 | 93 | 1014.7 |
| 20260507043327 | 22 | 207 | 1.6 | 1.6 | 0.00 | 0.00 | 0.00 | 93 | 1014.7 |
| 20260507042824 | 22 | 189 | 1.6 | 1.6 | 0.00 | 0.00 | 0.00 | 93 | 1014.8 |
| 20260507042319 | 22 | 200 | 0.0 | 0.0 | 0.00 | 0.00 | 0.00 | 93 | 1014.8 |
| 20260507041817 | 22 | 213 | 3.2 | 3.2 | 0.00 | 0.00 | 0.00 | 93 | 1014.9 |
| 20260507041313 | 22 | 186 | 0.0 | 0.0 | 0.00 | 0.00 | 0.00 | 93 | 1014.7 |
| 20260507040810 | 22 | 197 | 0.0 | 1.6 | 0.00 | 0.00 | 0.00 | 93 | 1014.9 |
| 20260507040306 | 22 | 193 | 1.6 | 1.6 | 0.00 | 0.00 | 0.00 | 93 | 1014.9 |
| 20260507035802 | 22 | 196 | 0.0 | 0.0 | 0.00 | 0.00 | 0.00 | 93 | 1014.8 |
| 20260507035257 | 22 | 208 | 1.6 | 3.2 | 0.00 | 0.00 | 0.00 | 93 | 1014.9 |
| 20260507034756 | 22 | 190 | 1.6 | 3.2 | 0.00 | 0.00 | 0.00 | 93 | 1015.1 |
| 20260507034252 | 22 | 180 | 0.0 | 1.6 | 0.00 | 0.00 | 0.00 | 93 | 1014.9 |
| 20260507033751 | 22 | 204 | 1.6 | 1.6 | 0.00 | 0.00 | 0.00 | 93 | 1015.2 |
| 20260507033248 | 22 | 183 | 3.2 | 4.8 | 0.00 | 0.00 | 0.00 | 93 | 1015.2 |
| 20260507032745 | 22 | 189 | 0.0 | 0.0 | 0.00 | 0.00 | 0.00 | 93 | 1015.1 |
| 20260507032241 | 22 | 196 | 0.0 | 0.0 | 0.00 | 0.00 | 0.00 | 93 | 1015.5 |
| 20260507031738 | 22 | 198 | 0.0 | 0.0 | 0.00 | 0.00 | 0.00 | 93 | 1015.4 |
| 20260507031235 | 22 | 189 | 0.0 | 0.0 | 0.00 | 0.00 | 0.00 | 93 | 1015.4 |
| 20260507030731 | 22 | 186 | 0.0 | 1.6 | 0.00 | 0.00 | 0.00 | 93 | 1015.3 |
| 20260507030229 | 22 | 211 | 1.6 | 1.6 | 0.00 | 0.00 | 0.00 | 93 | 1015.4 |
| 20260507025726 | 22 | 189 | 0.0 | 1.6 | 0.00 | 0.00 | 0.00 | 93 | 1015.3 |
| 20260507025223 | 22 | 192 | 3.2 | 3.2 | 0.00 | 0.00 | 0.00 | 93 | 1015.4 |
| 20260507024721 | 22 | 196 | 0.0 | 0.0 | 0.00 | 0.00 | 0.00 | 93 | 1015.5 |
| 20260507024218 | 22 | 196 | 0.0 | 1.6 | 0.00 | 0.00 | 0.00 | 93 | 1015.5 |
| 20260507023713 | 22 | 197 | 0.0 | 0.0 | 0.00 | 0.00 | 0.00 | 93 | 1015.6 |
| 20260507023211 | 22 | 201 | 0.0 | 1.6 | 0.00 | 0.00 | 0.00 | 93 | 1015.6 |
| 20260507022708 | 22 | 195 | 1.6 | 1.6 | 0.00 | 0.00 | 0.00 | 93 | 1015.7 |
| 20260507022203 | 22 | 172 | 0.0 | 0.0 | 0.00 | 0.00 | 0.00 | 93 | 1015.8 |
| 20260507021700 | 22 | 204 | 3.2 | 3.2 | 0.00 | 0.00 | 0.00 | 93 | 1015.7 |
| 20260507021155 | 22 | 225 | 1.6 | 3.2 | 0.00 | 0.00 | 0.00 | 93 | 1015.7 |
| 20260507020654 | 22 | 180 | 0.0 | 1.6 | 0.00 | 0.00 | 0.00 | 93 | 1015.7 |
| 20260507020149 | 22 | 199 | 3.2 | 3.2 | 0.00 | 0.00 | 0.00 | 93 | 1015.8 |
| 20260507015648 | 22 | 191 | 6.4 | 6.4 | 0.00 | 0.00 | 0.00 | 93 | 1015.7 |
| 20260507015145 | 22 | 204 | 0.0 | 1.6 | 0.00 | 0.00 | 0.00 | 93 | 1015.8 |
| 20260507014641 | 22 | 183 | 1.6 | 3.2 | 0.00 | 0.00 | 0.00 | 93 | 1016.0 |
| 20260507014138 | 22 | 212 | 3.2 | 4.8 | 0.00 | 0.00 | 0.00 | 92 | 1015.8 |
| 20260507013635 | 22 | 172 | 4.8 | 4.8 | 0.00 | 0.00 | 0.00 | 93 | 1015.8 |
| 20260507013132 | 22 | 206 | 3.2 | 3.2 | 0.00 | 0.00 | 0.00 | 92 | 1015.8 |
| 20260507012629 | 22 | 152 | 4.8 | 6.4 | 0.00 | 0.00 | 0.00 | 93 | 1015.7 |
| 20260507012124 | 22 | 188 | 1.6 | 3.2 | 0.00 | 0.00 | 0.00 | 93 | 1015.8 |
| 20260507011623 | 22 | 191 | 0.0 | 1.6 | 0.00 | 0.00 | 0.00 | 93 | 1016.0 |
| 20260507011119 | 22 | 198 | 3.2 | 3.2 | 0.00 | 0.00 | 0.00 | 93 | 1015.8 |
| 20260507010614 | 22 | 163 | 3.2 | 3.2 | 0.00 | 0.00 | 0.00 | 93 | 1016.1 |
| 20260507010110 | 22 | 196 | 0.0 | 1.6 | 0.00 | 0.00 | 0.00 | 92 | 1015.9 |
| 20260507005608 | 22 | 190 | 4.8 | 4.8 | 0.00 | 0.00 | 0.00 | 93 | 1015.9 |
| 20260507005103 | 22 | 213 | 1.6 | 1.6 | 0.00 | 0.00 | 0.00 | 93 | 1016.0 |
| 20260507004600 | 22 | 176 | 4.8 | 4.8 | 0.00 | 0.00 | 0.00 | 93 | 1016.0 |
| 20260507004058 | 22 | 192 | 3.2 | 3.2 | 0.00 | 0.00 | 0.00 | 93 | 1016.1 |
| 20260507003554 | 22 | 181 | 3.2 | 3.2 | 0.00 | 0.00 | 0.00 | 93 | 1016.1 |
| 20260507003049 | 22 | 210 | 3.2 | 4.8 | 0.00 | 0.00 | 0.00 | 93 | 1015.9 |
| 20260507002546 | 22 | 190 | 1.6 | 1.6 | 0.00 | 0.00 | 0.00 | 93 | 1016.0 |
| 20260507002041 | 22 | 169 | 8.0 | 11.3 | 0.00 | 0.00 | 0.00 | 93 | 1016.3 |
| 20260507001538 | 22 | 193 | 0.0 | 0.0 | 0.00 | 0.00 | 0.00 | 93 | 1016.1 |
| 20260507001036 | 22 | 100 | 1.6 | 3.2 | 0.00 | 0.00 | 0.00 | 93 | 1016.2 |
| 20260507000532 | 22 | 206 | 1.6 | 3.2 | 0.00 | 0.00 | 0.00 | 93 | 1016.3 |
| 20260507000027 | 22 | 102 | 1.6 | 3.2 | 0.00 | 0.00 | 0.00 | 93 | 1016.2 |
| 20260506235525 | 22 | 180 | 1.6 | 1.6 | 0.00 | 0.00 | 0.00 | 93 | 1016.5 |
| 20260506235021 | 22 | 185 | 1.6 | 1.6 | 0.00 | 0.00 | 0.00 | 93 | 1016.3 |
| 20260506234519 | 22 | 191 | 3.2 | 4.8 | 0.00 | 0.00 | 0.00 | 93 | 1016.4 |
| 20260506234016 | 22 | 195 | 3.2 | 3.2 | 0.00 | 0.00 | 0.00 | 93 | 1016.4 |
| 20260506233512 | 22 | 201 | 0.0 | 1.6 | 0.00 | 0.00 | 0.00 | 93 | 1016.3 |
| 20260506233009 | 22 | 194 | 0.0 | 1.6 | 0.00 | 0.00 | 0.00 | 93 | 1016.3 |
| 20260506232505 | 22 | 199 | 1.6 | 1.6 | 0.00 | 0.00 | 0.00 | 93 | 1016.2 |
| 20260506232001 | 22 | 243 | 3.2 | 3.2 | 0.00 | 0.00 | 0.00 | 93 | 1016.4 |
| 20260506231458 | 22 | 194 | 0.0 | 1.6 | 0.00 | 0.00 | 0.00 | 93 | 1016.0 |
| 20260506230956 | 22 | 176 | 0.0 | 1.6 | 0.00 | 0.00 | 0.00 | 93 | 1016.0 |
| 20260506230451 | 22 | 201 | 1.6 | 1.6 | 0.00 | 0.00 | 0.00 | 93 | 1016.1 |
| 20260506225948 | 22 | 180 | 3.2 | 4.8 | 0.00 | 0.00 | 0.00 | 93 | 1016.2 |
| 20260506225446 | 22 | 195 | 0.0 | 0.0 | 0.00 | 0.00 | 0.00 | 93 | 1016.2 |
| 20260506224943 | 22 | 170 | 1.6 | 3.2 | 0.00 | 0.00 | 0.00 | 93 | 1016.0 |
| 20260506224440 | 22 | 195 | 3.2 | 3.2 | 0.00 | 0.00 | 0.00 | 93 | 1016.1 |
| 20260506223936 | 22 | 193 | 0.0 | 0.0 | 0.00 | 0.00 | 0.00 | 93 | 1016.3 |
| 20260506223432 | 22 | 201 | 3.2 | 4.8 | 0.00 | 0.00 | 0.00 | 93 | 1015.9 |
| 20260506222929 | 22 | 190 | 1.6 | 1.6 | 0.00 | 0.00 | 0.00 | 93 | 1015.9 |
| 20260506222426 | 22 | 199 | 0.0 | 1.6 | 0.00 | 0.00 | 0.00 | 93 | 1016.0 |
| 20260506221923 | 22 | 177 | 0.0 | 1.6 | 0.00 | 0.00 | 0.00 | 93 | 1016.0 |
| 20260506221420 | 22 | 193 | 0.0 | 0.0 | 0.00 | 0.00 | 0.00 | 93 | 1016.1 |
| 20260506220918 | 22 | 189 | 1.6 | 1.6 | 0.00 | 0.00 | 0.00 | 93 | 1015.8 |
| 20260506220413 | 22 | 182 | 0.0 | 0.0 | 0.00 | 0.00 | 0.00 | 93 | 1015.7 |
| 20260506215910 | 22 | 196 | 0.0 | 1.6 | 0.00 | 0.00 | 0.00 | 93 | 1015.7 |
| 20260506215406 | 22 | 187 | 0.0 | 0.0 | 0.00 | 0.00 | 0.00 | 93 | 1015.8 |
| 20260506214902 | 22 | 183 | 0.0 | 1.6 | 0.00 | 0.00 | 0.00 | 93 | 1015.8 |
| 20260506214359 | 22 | 191 | 0.0 | 0.0 | 0.00 | 0.00 | 0.00 | 93 | 1015.8 |
| 20260506213856 | 22 | 197 | 0.0 | 0.0 | 0.00 | 0.00 | 0.00 | 93 | 1015.8 |
| 20260506213354 | 22 | 188 | 0.0 | 0.0 | 0.00 | 0.00 | 0.00 | 92 | 1016.0 |
| 20260506212851 | 22 | 195 | 1.6 | 1.6 | 0.00 | 0.00 | 0.00 | 92 | 1015.8 |
| 20260506212347 | 22 | 191 | 0.0 | 0.0 | 0.00 | 0.00 | 0.00 | 92 | 1015.8 |
| 20260506211842 | 22 | 194 | 1.6 | 1.6 | 0.00 | 0.00 | 0.00 | 92 | 1015.7 |
| 20260506211338 | 22 | 202 | 1.6 | 1.6 | 0.00 | 0.00 | 0.00 | 92 | 1015.7 |
| 20260506210835 | 22 | 193 | 0.0 | 0.0 | 0.00 | 0.00 | 0.00 | 92 | 1015.7 |
| 20260506210332 | 22 | 201 | 0.0 | 1.6 | 0.00 | 0.00 | 0.00 | 92 | 1015.8 |
| 20260506205829 | 22 | 201 | 1.6 | 1.6 | 0.00 | 0.00 | 0.00 | 92 | 1015.7 |
| 20260506205325 | 22 | 203 | 1.6 | 1.6 | 0.00 | 0.00 | 0.00 | 92 | 1015.7 |
| 20260506204822 | 22 | 198 | 1.6 | 1.6 | 0.00 | 0.00 | 0.00 | 92 | 1015.7 |
| 20260506204320 | 22 | 193 | 0.0 | 1.6 | 0.00 | 0.00 | 0.00 | 92 | 1015.5 |
| 20260506203817 | 22 | 199 | 3.2 | 3.2 | 0.00 | 0.00 | 0.00 | 92 | 1015.4 |
| 20260506203314 | 22 | 194 | 1.6 | 1.6 | 0.00 | 0.00 | 0.00 | 91 | 1015.5 |